createdAt,value
2018-05-19T00:02:04.416Z,98013.64
2018-05-19T00:04:32.742Z,98010.59
2018-05-19T00:07:00.204Z,98005.33
2018-05-19T00:09:27.685Z,98001.57
2018-05-19T00:11:55.157Z,98010.03
2018-05-19T00:14:22.602Z,98002.88
2018-05-19T00:16:50.082Z,98007.13
2018-05-19T00:19:17.537Z,98010.66
2018-05-19T00:21:45.004Z,98014.02
2018-05-19T00:24:12.464Z,98015.09
2018-05-19T00:26:39.937Z,98012.11
2018-05-19T00:29:07.447Z,98010.45
2018-05-19T00:31:34.944Z,98004.84
2018-05-19T00:34:02.430Z,98006.39
2018-05-19T00:36:29.934Z,98006.39
2018-05-19T00:38:57.444Z,98002.27
2018-05-19T00:41:24.953Z,98001.28
2018-05-19T00:43:52.422Z,98003.13
2018-05-19T00:46:20.372Z,98002.27
2018-05-19T00:48:47.846Z,97997.06
2018-05-19T00:51:15.674Z,97993.16
2018-05-19T00:53:43.139Z,97997.00
2018-05-19T00:56:10.724Z,97991.89
2018-05-19T00:58:38.689Z,97994.58
2018-05-19T01:01:06.172Z,97993.68
2018-05-19T01:03:34.835Z,97989.03
2018-05-19T01:06:03.922Z,97982.72
2018-05-19T01:08:32.309Z,97984.48
2018-05-19T01:11:00.172Z,97980.69
2018-05-19T01:13:27.617Z,97981.92
2018-05-19T01:15:55.114Z,97983.73
2018-05-19T01:18:22.568Z,97980.84
2018-05-19T01:20:50.195Z,97982.09
2018-05-19T01:23:17.654Z,97979.61
2018-05-19T01:25:45.102Z,97973.79
2018-05-19T01:28:12.540Z,97971.79
2018-05-19T01:30:40.649Z,97966.84
2018-05-19T01:33:08.414Z,97963.64
2018-05-19T01:35:36.384Z,97967.70
2018-05-19T01:38:03.927Z,97966.04
2018-05-19T01:40:31.367Z,97964.80
2018-05-19T01:42:58.844Z,97961.05
2018-05-19T01:45:26.314Z,97963.20
2018-05-19T01:47:53.772Z,97964.61
2018-05-19T01:50:21.229Z,97967.47
2018-05-19T01:52:50.566Z,97969.72
2018-05-19T01:55:20.355Z,97960.11
2018-05-19T01:57:49.707Z,97962.32
2018-05-19T02:00:19.279Z,97962.88
2018-05-19T02:02:48.525Z,97963.20
2018-05-19T02:05:16.914Z,97960.56
2018-05-19T02:07:46.693Z,97961.97
2018-05-19T02:10:15.182Z,97962.33
2018-05-19T02:12:43.011Z,97959.83
2018-05-19T02:15:12.541Z,97970.05
2018-05-19T02:17:42.235Z,97960.30
2018-05-19T02:20:11.591Z,97962.20
2018-05-19T02:22:40.940Z,97960.16
2018-05-19T02:25:10.449Z,97963.73
2018-05-19T02:27:39.785Z,97957.98
2018-05-19T02:30:09.241Z,97953.03
2018-05-19T02:32:38.465Z,97952.44
2018-05-19T02:35:07.866Z,97954.73
2018-05-19T02:37:41.392Z,97954.28
2018-05-19T02:40:10.910Z,97950.63
2018-05-19T02:42:39.473Z,97950.92
2018-05-19T02:45:09.109Z,97955.88
2018-05-19T02:47:38.353Z,97950.61
2018-05-19T02:50:07.750Z,97944.61
2018-05-19T02:52:36.980Z,97947.53
2018-05-19T02:55:04.494Z,97948.88
2018-05-19T02:57:33.792Z,97948.08
2018-05-19T03:00:02.958Z,97945.38
2018-05-19T03:02:32.103Z,97945.56
2018-05-19T03:05:01.920Z,97944.56
2018-05-19T03:07:29.375Z,97945.36
2018-05-19T03:10:00.171Z,97950.91
2018-05-19T03:12:29.505Z,97947.77
2018-05-19T03:14:58.994Z,97950.02
2018-05-19T03:17:28.682Z,97944.95
2018-05-19T03:19:57.732Z,97949.41
2018-05-19T03:22:27.203Z,97952.81
2018-05-19T03:24:56.670Z,97951.01
2018-05-19T03:27:24.269Z,97956.36
2018-05-19T03:29:53.643Z,97956.70
2018-05-19T03:32:22.924Z,97946.83
2018-05-19T03:34:50.480Z,97958.18
2018-05-19T03:37:19.628Z,97954.02
2018-05-19T03:39:48.192Z,97957.57
2018-05-19T03:42:17.757Z,97962.58
2018-05-19T03:44:47.056Z,97958.27
2018-05-19T03:47:14.528Z,97956.52
2018-05-19T03:49:44.594Z,97958.17
2018-05-19T03:52:14.033Z,97956.56
2018-05-19T03:54:42.906Z,97958.17
2018-05-19T03:57:23.802Z,97951.16
2018-05-19T04:00:03.981Z,97953.57
2018-05-19T04:02:39.218Z,97962.27
2018-05-19T04:05:08.504Z,97960.83
2018-05-19T04:07:38.180Z,97965.27
2018-05-19T04:10:07.333Z,97963.88
2018-05-19T04:12:35.157Z,97960.98
2018-05-19T04:15:08.483Z,97967.23
2018-05-19T04:17:37.945Z,97974.21
2018-05-19T04:20:07.171Z,97965.11
2018-05-19T04:22:35.683Z,97962.52
2018-05-19T04:25:05.402Z,97966.52
2018-05-19T04:27:34.715Z,97970.08
2018-05-19T04:30:04.321Z,97966.53
2018-05-19T04:32:32.815Z,97973.23
2018-05-19T04:35:02.451Z,97975.16
2018-05-19T04:37:31.831Z,97971.97
2018-05-19T04:40:01.360Z,97978.02
2018-05-19T04:42:34.872Z,97977.17
2018-05-19T04:45:03.660Z,97980.08
2018-05-19T04:47:32.886Z,97977.73
2018-05-19T04:50:05.614Z,97982.29
2018-05-19T04:52:34.896Z,97984.39
2018-05-19T04:55:04.525Z,97988.65
2018-05-19T04:57:34.033Z,97986.49
2018-05-19T05:00:03.695Z,97984.90
2018-05-19T05:02:32.412Z,97979.41
2018-05-19T05:05:05.650Z,97984.72
2018-05-19T05:07:34.504Z,97975.45
2018-05-19T05:10:03.921Z,97981.27
2018-05-19T05:12:33.282Z,97983.22
2018-05-19T05:15:06.771Z,97988.52
2018-05-19T05:17:36.285Z,97992.08
2018-05-19T05:20:06.141Z,97995.14
2018-05-19T05:22:34.544Z,97996.70
2018-05-19T05:25:03.666Z,97996.89
2018-05-19T05:27:33.342Z,98000.66
2018-05-19T05:30:02.590Z,98002.85
2018-05-19T05:32:32.226Z,98007.72
2018-05-19T05:35:03.028Z,98007.67
2018-05-19T05:37:32.364Z,98013.52
2018-05-19T05:40:00.577Z,98016.08
2018-05-19T05:42:28.550Z,98006.77
2018-05-19T05:44:58.177Z,98012.95
2018-05-19T05:47:27.438Z,98016.95
2018-05-19T05:49:56.982Z,98018.33
2018-05-19T05:52:27.939Z,98017.52
2018-05-19T05:54:55.486Z,98006.52
2018-05-19T05:57:28.393Z,98013.27
2018-05-19T05:59:57.583Z,98018.95
2018-05-19T06:02:32.895Z,98017.90
2018-05-19T06:05:03.420Z,98018.46
2018-05-19T06:07:31.434Z,98030.66
2018-05-19T06:10:00.711Z,98027.61
2018-05-19T06:12:29.887Z,98025.19
2018-05-19T06:14:58.036Z,98017.27
2018-05-19T06:17:26.774Z,98026.78
2018-05-19T06:19:54.632Z,98025.13
2018-05-19T06:22:24.268Z,98028.33
2018-05-19T06:24:57.316Z,98024.75
2018-05-19T06:27:31.009Z,98026.64
2018-05-19T06:30:05.004Z,98020.80
2018-05-19T06:32:34.100Z,98021.70
2018-05-19T06:35:03.759Z,98020.65
2018-05-19T06:37:33.074Z,98020.65
2018-05-19T06:40:02.480Z,98021.73
2018-05-19T06:42:32.016Z,98018.15
2018-05-19T06:45:03.820Z,98024.32
2018-05-19T06:57:59.143Z,98032.28
2018-05-19T07:00:28.096Z,98032.92
2018-05-19T07:02:58.626Z,98029.70
2018-05-19T07:05:38.457Z,98026.18
2018-05-19T07:08:10.796Z,98029.20
2018-05-19T07:10:51.115Z,98026.75
2018-05-19T07:15:59.885Z,98030.52
2018-05-19T07:18:31.284Z,98028.34
2018-05-19T07:21:01.364Z,98023.39
2018-05-19T07:23:37.791Z,98037.45
2018-05-19T07:26:11.701Z,98037.08
2018-05-19T07:28:43.011Z,98039.23
2018-05-19T07:31:12.710Z,98044.09
2018-05-19T07:33:42.139Z,98046.33
2018-05-19T07:36:11.395Z,98049.39
2018-05-19T07:38:44.591Z,98043.91
2018-05-19T07:41:14.053Z,98049.84
2018-05-19T07:43:48.760Z,98048.94
2018-05-19T07:46:22.511Z,98046.71
2018-05-19T07:48:51.394Z,98049.87
2018-05-19T07:51:22.615Z,98046.71
2018-05-19T07:53:51.593Z,98050.76
2018-05-19T07:56:21.734Z,98050.19
2018-05-19T07:58:57.863Z,98052.00
2018-05-19T08:01:26.807Z,98048.14
2018-05-19T08:11:48.164Z,98047.92
2018-05-19T08:19:32.138Z,98042.56
2018-05-19T08:22:07.906Z,98042.91
2018-05-19T08:24:38.391Z,98040.42
2018-05-19T08:27:06.424Z,98040.26
2018-05-19T08:29:37.669Z,98037.94
2018-05-19T08:34:54.716Z,98047.60
2018-05-19T08:37:24.477Z,98041.89
2018-05-19T08:39:54.861Z,98049.08
2018-05-19T08:42:25.476Z,98049.84
2018-05-19T08:44:54.077Z,98055.06
2018-05-19T08:47:28.748Z,98055.98
2018-05-19T08:49:57.995Z,98049.84
2018-05-19T08:52:27.166Z,98050.51
2018-05-19T08:54:57.827Z,98048.44
2018-05-19T08:57:29.494Z,98046.61
2018-05-19T08:59:57.892Z,98045.10
2018-05-19T09:02:29.120Z,98045.92
2018-05-19T09:04:57.937Z,98046.79
2018-05-19T09:07:27.089Z,98044.83
2018-05-19T09:09:55.615Z,98048.68
2018-05-19T09:12:24.098Z,98048.31
2018-05-19T09:17:26.799Z,98057.48
2018-05-19T09:19:56.993Z,98056.91
2018-05-19T09:22:24.524Z,98048.99
2018-05-19T09:24:53.388Z,98046.59
2018-05-19T09:27:21.882Z,98044.42
2018-05-19T09:32:31.919Z,98042.08
2018-05-19T09:35:00.937Z,98043.72
2018-05-19T09:37:33.676Z,98047.59
2018-05-19T09:40:02.902Z,98052.73
2018-05-19T09:42:32.896Z,98049.59
2018-05-19T09:45:12.946Z,98048.07
2018-05-19T09:47:56.470Z,98054.41
2018-05-19T09:53:38.081Z,98045.27
2018-05-19T09:56:24.595Z,98046.42
2018-05-19T09:59:00.072Z,98047.59
2018-05-19T10:01:29.577Z,98054.08
2018-05-19T10:04:00.966Z,98057.63
2018-05-19T10:06:29.402Z,98054.96
2018-05-19T10:09:00.328Z,98054.69
2018-05-19T10:11:35.070Z,98046.48
2018-05-19T10:14:06.679Z,98059.67
2018-05-19T10:16:42.779Z,98056.00
2018-05-19T10:19:14.499Z,98049.68
2018-05-19T10:21:48.282Z,98058.09
2018-05-19T10:24:17.104Z,98053.33
2018-05-19T10:26:45.567Z,98055.23
2018-05-19T10:29:15.954Z,98049.39
2018-05-19T10:31:49.363Z,98051.96
2018-05-19T10:34:21.438Z,98050.25
2018-05-19T10:36:50.792Z,98050.92
2018-05-19T10:39:20.678Z,98046.27
2018-05-19T10:41:50.847Z,98052.23
2018-05-19T10:44:20.517Z,98051.61
2018-05-19T10:46:50.411Z,98049.34
2018-05-19T10:49:20.533Z,98042.61
2018-05-19T10:51:49.037Z,98048.56
2018-05-19T10:54:19.178Z,98045.27
2018-05-19T10:56:47.838Z,98039.52
2018-05-19T10:59:16.513Z,98037.60
2018-05-19T11:01:45.628Z,98029.35
2018-05-19T11:04:13.202Z,98027.20
2018-05-19T11:06:40.752Z,98017.59
2018-05-19T11:09:10.298Z,98012.73
2018-05-19T11:11:40.033Z,98016.61
2018-05-19T11:14:08.572Z,97974.49
2018-05-19T11:20:42.250Z,98011.80
2018-05-19T11:23:22.681Z,98016.36
2018-05-19T11:25:50.327Z,98008.14
2018-05-19T11:28:18.788Z,98002.20
2018-05-19T11:30:46.301Z,97999.00
2018-05-19T11:33:13.805Z,97996.84
2018-05-19T11:35:42.382Z,98002.86
2018-05-19T11:38:11.040Z,97996.87
2018-05-19T11:40:38.494Z,97996.37
2018-05-19T11:43:06.392Z,97999.05
2018-05-19T11:45:33.890Z,98002.42
2018-05-19T11:48:02.247Z,97995.00
2018-05-19T11:50:30.065Z,97992.78
2018-05-19T11:52:58.425Z,97990.09
2018-05-19T11:55:25.878Z,97989.65
2018-05-19T11:57:53.321Z,97983.40
2018-05-19T12:00:20.839Z,97982.95
2018-05-19T12:02:49.573Z,97974.39
2018-05-19T12:05:17.639Z,97972.03
2018-05-19T12:07:45.251Z,97962.86
2018-05-19T12:10:13.553Z,97966.59
2018-05-19T12:12:41.327Z,97957.23
2018-05-19T12:15:09.416Z,97953.46
2018-05-19T12:17:37.735Z,97953.41
2018-05-19T12:20:06.197Z,97949.89
2018-05-19T12:22:35.271Z,97951.75
2018-05-19T12:25:02.845Z,97953.57
2018-05-19T12:27:30.304Z,97946.88
2018-05-19T12:29:57.775Z,97942.80
2018-05-19T12:32:25.409Z,97944.01
2018-05-19T12:34:52.982Z,97941.42
2018-05-19T12:37:20.655Z,97947.81
2018-05-19T12:39:48.116Z,97945.81
2018-05-19T12:42:16.614Z,97940.78
2018-05-19T12:44:46.023Z,97938.09
2018-05-19T12:47:15.421Z,97938.41
2018-05-19T12:49:42.867Z,97939.41
2018-05-19T12:52:11.097Z,97933.06
2018-05-19T12:54:41.355Z,97938.16
2018-05-19T12:57:08.982Z,97934.06
2018-05-19T12:59:36.458Z,97943.09
2018-05-19T13:02:03.938Z,97942.98
2018-05-19T13:04:31.386Z,97937.58
2018-05-19T13:06:59.184Z,97940.78
2018-05-19T13:09:26.686Z,97940.11
2018-05-19T13:11:54.968Z,97933.81
2018-05-19T13:14:22.437Z,97940.81
2018-05-19T13:16:50.907Z,97944.20
2018-05-19T13:19:19.065Z,97943.18
2018-05-19T13:21:47.489Z,97928.11
2018-05-19T13:24:15.071Z,97935.92
2018-05-19T13:26:42.830Z,97933.36
2018-05-19T13:29:11.647Z,97930.28
2018-05-19T13:31:40.283Z,97926.97
2018-05-19T13:34:07.828Z,97915.61
2018-05-19T13:36:37.028Z,97918.69
2018-05-19T13:39:05.547Z,97911.63
2018-05-19T13:41:37.670Z,97916.52
2018-05-19T13:44:05.524Z,97907.57
2018-05-19T13:46:41.784Z,97914.18
2018-05-19T13:49:18.488Z,97907.89
2018-05-19T13:52:03.075Z,97909.58
2018-05-19T13:54:49.734Z,97910.56
2018-05-19T14:00:26.357Z,97918.21
2018-05-19T14:03:01.686Z,97918.73
2018-05-19T14:05:29.834Z,97915.67
2018-05-19T14:08:01.239Z,97919.84
2018-05-19T14:10:29.776Z,97896.23
2018-05-19T14:13:00.710Z,97925.16
2018-05-19T14:15:32.211Z,97921.63
2018-05-19T14:18:01.285Z,97922.45
2018-05-19T14:20:30.716Z,97919.16
2018-05-19T14:22:58.277Z,97922.48
2018-05-19T14:25:28.390Z,97917.20
2018-05-19T14:27:55.884Z,97922.66
2018-05-19T14:30:23.499Z,97926.52
2018-05-19T14:32:51.033Z,97921.31
2018-05-19T14:35:18.761Z,97919.19
2018-05-19T14:37:46.230Z,97915.52
2018-05-19T14:40:13.727Z,97918.19
2018-05-19T14:42:41.244Z,97916.86
2018-05-19T14:45:08.806Z,97917.02
2018-05-19T14:47:36.367Z,97913.88
2018-05-19T14:50:04.714Z,97917.20
2018-05-19T14:52:32.196Z,97921.52
2018-05-19T14:55:00.002Z,97918.16
2018-05-19T14:57:27.532Z,97920.63
2018-05-19T14:59:55.031Z,97916.43
2018-05-19T15:02:22.602Z,97919.34
2018-05-19T15:04:50.869Z,97910.48
2018-05-19T15:07:18.560Z,97908.06
2018-05-19T15:09:46.550Z,97909.21
2018-05-19T15:12:14.531Z,97916.28
2018-05-19T15:14:42.814Z,97893.02
2018-05-19T15:17:10.868Z,97903.32
2018-05-19T15:19:38.989Z,97902.68
2018-05-19T15:22:06.454Z,97899.47
2018-05-19T15:24:33.997Z,97901.12
2018-05-19T15:27:03.417Z,97898.17
2018-05-19T15:29:30.966Z,97893.15
2018-05-19T15:31:59.208Z,97892.50
2018-05-19T15:34:26.745Z,97890.83
2018-05-19T15:36:54.181Z,97889.03
2018-05-19T15:39:21.679Z,97889.98
2018-05-19T15:41:49.139Z,97886.66
2018-05-19T15:44:16.655Z,97888.63
